createdAt,value
2022-12-11T00:00:26.373Z,3.70
2022-12-11T00:02:53.663Z,3.70
2022-12-11T00:05:20.997Z,3.60
2022-12-11T00:07:48.225Z,3.70
2022-12-11T00:10:15.505Z,3.70
2022-12-11T00:12:43.173Z,3.70
2022-12-11T00:15:10.928Z,3.60
2022-12-11T00:17:38.806Z,3.60
2022-12-11T00:20:07.908Z,3.60
2022-12-11T00:22:35.434Z,3.60
2022-12-11T00:25:02.763Z,3.60
2022-12-11T00:27:29.984Z,3.60
2022-12-11T00:29:57.288Z,3.60
2022-12-11T00:32:28.237Z,3.60
2022-12-11T00:34:55.729Z,3.60
2022-12-11T00:37:23.052Z,3.60
2022-12-11T00:39:50.491Z,3.60
2022-12-11T00:42:17.678Z,3.60
2022-12-11T00:44:44.871Z,3.60
2022-12-11T00:47:12.591Z,3.60
2022-12-11T00:49:41.234Z,3.60
2022-12-11T00:52:11.141Z,3.60
2022-12-11T00:54:38.374Z,3.60
2022-12-11T00:57:05.566Z,3.60
2022-12-11T00:59:32.753Z,3.60
2022-12-11T01:02:00.064Z,3.70
2022-12-11T01:04:27.305Z,3.70
2022-12-11T01:06:54.564Z,3.70
2022-12-11T01:09:40.551Z,3.60
2022-12-11T01:12:07.850Z,3.70
2022-12-11T01:14:35.084Z,3.60
2022-12-11T01:17:02.336Z,3.80
2022-12-11T01:19:29.620Z,3.70
2022-12-11T01:21:56.877Z,3.80
2022-12-11T01:24:24.086Z,3.80
2022-12-11T01:26:51.309Z,3.80
2022-12-11T01:29:18.547Z,3.80
2022-12-11T01:31:45.768Z,3.80
2022-12-11T01:34:13.002Z,3.80
2022-12-11T01:36:40.207Z,3.90
2022-12-11T01:39:07.450Z,3.90
2022-12-11T01:41:34.733Z,3.80
2022-12-11T01:44:22.177Z,3.90
2022-12-11T01:46:49.493Z,3.90
2022-12-11T01:49:18.716Z,3.90
2022-12-11T01:52:19.653Z,4.00
2022-12-11T01:54:48.255Z,4.00
2022-12-11T01:57:16.390Z,4.00
2022-12-11T01:59:45.988Z,4.00
2022-12-11T02:02:30.239Z,4.00
2022-12-11T02:04:57.538Z,4.00
2022-12-11T02:07:25.026Z,4.00
2022-12-11T02:09:52.362Z,4.00
2022-12-11T02:12:36.200Z,4.00
2022-12-11T02:15:20.332Z,4.00
2022-12-11T02:18:09.113Z,4.10
2022-12-11T02:20:39.170Z,4.00
2022-12-11T02:23:15.280Z,4.10
2022-12-11T02:26:05.761Z,4.10
2022-12-11T02:28:55.753Z,4.10
2022-12-11T02:31:37.032Z,4.10
2022-12-11T02:34:17.873Z,4.20
2022-12-11T02:36:50.082Z,4.10
2022-12-11T02:39:18.853Z,4.10
2022-12-11T02:41:51.271Z,4.10
2022-12-11T02:44:24.491Z,4.10
2022-12-11T02:46:52.958Z,4.10
2022-12-11T02:49:21.745Z,4.10
2022-12-11T02:51:50.603Z,4.10
2022-12-11T02:54:22.395Z,4.10
2022-12-11T02:56:58.905Z,4.00
2022-12-11T02:59:35.717Z,4.00
2022-12-11T03:02:03.828Z,4.10
2022-12-11T03:04:32.132Z,4.10
2022-12-11T03:07:11.902Z,4.10
2022-12-11T03:09:43.920Z,4.10
2022-12-11T03:12:13.764Z,4.00
2022-12-11T03:14:42.297Z,4.00
2022-12-11T03:17:20.040Z,4.00
2022-12-11T03:19:50.189Z,4.00
2022-12-11T03:22:29.886Z,4.00
2022-12-11T03:25:13.344Z,4.00
2022-12-11T03:27:46.936Z,4.00
2022-12-11T03:30:17.539Z,4.00
2022-12-11T03:33:03.458Z,4.00
2022-12-11T03:35:41.190Z,4.00
2022-12-11T03:38:21.114Z,4.00
2022-12-11T03:40:53.161Z,4.00
2022-12-11T03:43:21.939Z,4.00
2022-12-11T03:45:52.358Z,3.80
2022-12-11T03:48:21.396Z,4.10
2022-12-11T03:50:50.026Z,4.10
2022-12-11T03:53:19.605Z,4.10
2022-12-11T03:55:51.464Z,4.10
2022-12-11T03:58:18.728Z,4.10
2022-12-11T04:00:45.937Z,4.10
2022-12-11T04:03:14.150Z,4.20
2022-12-11T04:05:47.854Z,4.10
2022-12-11T04:08:16.201Z,4.20
2022-12-11T04:10:43.699Z,4.10
2022-12-11T04:13:11.288Z,4.10
2022-12-11T04:15:39.419Z,4.10
2022-12-11T04:18:26.008Z,4.10
2022-12-11T04:21:13.001Z,4.00
2022-12-11T04:23:59.021Z,4.00
2022-12-11T04:26:26.335Z,4.00
2022-12-11T04:28:53.625Z,4.00
2022-12-11T04:31:22.583Z,3.90
2022-12-11T04:33:50.195Z,3.90
2022-12-11T04:36:17.798Z,3.90
2022-12-11T04:38:45.071Z,3.90
2022-12-11T04:41:14.510Z,3.90
2022-12-11T04:43:45.062Z,3.90
2022-12-11T04:46:21.367Z,3.90
2022-12-11T04:48:52.534Z,3.90
2022-12-11T04:51:24.457Z,3.90
2022-12-11T04:53:51.921Z,3.90
2022-12-11T04:56:19.863Z,3.90
2022-12-11T04:58:47.822Z,3.90
2022-12-11T05:01:18.103Z,4.00
2022-12-11T05:03:45.945Z,3.90
2022-12-11T05:06:14.173Z,3.90
2022-12-11T05:08:42.536Z,3.90
2022-12-11T05:11:11.878Z,3.90
2022-12-11T05:13:39.983Z,4.00
2022-12-11T05:16:09.571Z,4.00
2022-12-11T05:18:36.886Z,4.00
2022-12-11T05:21:07.347Z,4.00
2022-12-11T05:23:34.895Z,4.00
2022-12-11T05:26:07.955Z,3.90
2022-12-11T05:28:38.069Z,3.90
2022-12-11T05:31:08.724Z,3.80
2022-12-11T05:33:36.152Z,3.80
2022-12-11T05:36:03.904Z,3.80
2022-12-11T05:38:31.165Z,3.80
2022-12-11T05:41:00.990Z,3.80
2022-12-11T05:43:30.698Z,3.80
2022-12-11T05:46:07.653Z,3.90
2022-12-11T05:48:35.832Z,3.80
2022-12-11T05:51:04.879Z,5.30
2022-12-11T05:53:32.592Z,3.90
2022-12-11T05:56:05.122Z,3.90
2022-12-11T05:58:33.260Z,3.80
2022-12-11T06:01:00.571Z,3.80
2022-12-11T06:03:28.175Z,3.90
2022-12-11T06:05:55.761Z,3.90
2022-12-11T06:08:23.337Z,3.90
2022-12-11T06:10:50.917Z,3.80
2022-12-11T06:13:18.367Z,3.80
2022-12-11T06:15:45.674Z,3.90
2022-12-11T06:18:12.975Z,3.80
2022-12-11T06:20:40.150Z,3.80
2022-12-11T06:23:07.584Z,3.80
2022-12-11T06:25:34.989Z,3.80
2022-12-11T06:28:02.274Z,3.80
2022-12-11T06:30:39.139Z,3.70
2022-12-11T06:33:07.234Z,3.70
2022-12-11T06:35:40.255Z,3.70
2022-12-11T06:38:10.642Z,3.60
2022-12-11T06:40:38.352Z,3.70
2022-12-11T06:43:05.574Z,3.60
2022-12-11T06:45:32.851Z,3.60
2022-12-11T06:48:00.192Z,3.60
2022-12-11T06:50:27.480Z,3.50
2022-12-11T06:52:56.742Z,3.50
2022-12-11T06:55:23.894Z,3.50
2022-12-11T06:57:51.196Z,3.50
2022-12-11T07:00:18.503Z,3.50
2022-12-11T07:02:45.673Z,3.50
2022-12-11T07:05:13.412Z,3.40
2022-12-11T07:07:40.875Z,3.40
2022-12-11T07:10:08.928Z,3.40
2022-12-11T07:12:36.590Z,3.40
2022-12-11T07:15:05.255Z,3.40
2022-12-11T07:17:32.508Z,3.40
2022-12-11T07:19:59.765Z,3.30
2022-12-11T07:22:28.397Z,3.40
2022-12-11T07:24:55.775Z,3.30
2022-12-11T07:27:23.128Z,3.30
2022-12-11T07:29:51.181Z,3.20
2022-12-11T07:32:18.602Z,3.30
2022-12-11T07:34:51.411Z,3.30
2022-12-11T07:37:19.148Z,3.20
2022-12-11T07:39:46.438Z,3.30
2022-12-11T07:42:13.632Z,3.30
2022-12-11T07:44:40.825Z,3.30
2022-12-11T07:47:08.097Z,3.30
2022-12-11T07:49:35.297Z,3.30
2022-12-11T07:52:02.525Z,3.30
2022-12-11T07:54:29.712Z,3.40
2022-12-11T07:56:57.369Z,3.40
2022-12-11T07:59:24.601Z,3.30
2022-12-11T08:01:51.882Z,3.30
2022-12-11T08:04:19.134Z,3.30
2022-12-11T08:06:46.337Z,3.30
2022-12-11T08:09:20.727Z,3.30
2022-12-11T08:11:50.607Z,3.30
2022-12-11T08:14:18.279Z,3.30
2022-12-11T08:16:45.557Z,3.40
2022-12-11T08:19:13.392Z,3.40
2022-12-11T08:21:41.099Z,3.40
2022-12-11T08:24:09.132Z,3.40
2022-12-11T08:26:36.629Z,3.40
2022-12-11T08:29:04.096Z,3.40
2022-12-11T08:31:33.468Z,3.50
2022-12-11T08:34:00.818Z,3.40
2022-12-11T08:36:28.629Z,3.50
2022-12-11T08:38:56.565Z,3.50
2022-12-11T08:41:26.525Z,3.50
2022-12-11T08:43:55.062Z,3.50
2022-12-11T08:46:28.783Z,3.50
2022-12-11T08:48:56.512Z,3.60
2022-12-11T08:51:26.479Z,3.60
2022-12-11T08:53:58.465Z,3.60
2022-12-11T08:56:26.833Z,3.60
2022-12-11T08:58:54.370Z,3.60
2022-12-11T09:01:26.572Z,3.70
2022-12-11T09:03:55.582Z,3.70
2022-12-11T09:06:25.442Z,3.70
2022-12-11T09:08:53.581Z,3.80
2022-12-11T09:11:27.396Z,3.80
2022-12-11T09:13:55.188Z,3.80
2022-12-11T09:16:24.983Z,3.80
2022-12-11T09:18:53.915Z,3.70
2022-12-11T09:21:24.697Z,3.80
2022-12-11T09:23:58.207Z,3.90
2022-12-11T09:26:26.851Z,3.90
2022-12-11T09:28:54.868Z,3.90
2022-12-11T09:31:26.329Z,4.00
2022-12-11T09:33:59.038Z,4.00
2022-12-11T09:36:27.614Z,4.10
2022-12-11T09:38:54.888Z,4.20
2022-12-11T09:41:22.069Z,4.10
2022-12-11T09:43:59.841Z,4.00
2022-12-11T09:46:33.712Z,4.10
2022-12-11T09:49:04.368Z,4.20
2022-12-11T09:51:47.285Z,4.20
2022-12-11T09:54:15.219Z,4.30
2022-12-11T09:57:10.453Z,4.30
2022-12-11T10:00:05.891Z,4.30
2022-12-11T10:03:15.598Z,4.40
2022-12-11T10:05:53.500Z,4.50
2022-12-11T10:08:40.043Z,4.50
2022-12-11T10:11:41.965Z,4.50
2022-12-11T10:14:33.162Z,4.60
2022-12-11T10:17:12.508Z,4.60
2022-12-11T10:19:41.737Z,4.70
2022-12-11T10:22:26.949Z,4.70
2022-12-11T10:25:12.524Z,4.70
2022-12-11T10:27:41.115Z,4.70
2022-12-11T10:30:23.653Z,4.70
2022-12-11T10:33:01.203Z,4.80
2022-12-11T10:35:56.804Z,4.80
2022-12-11T10:38:32.549Z,4.80
2022-12-11T10:41:06.129Z,4.70
2022-12-11T10:43:45.913Z,4.60
2022-12-11T10:46:18.403Z,4.60
2022-12-11T10:48:48.222Z,4.80
2022-12-11T10:51:15.919Z,4.80
2022-12-11T10:53:44.543Z,4.80
2022-12-11T10:56:12.584Z,4.80
2022-12-11T10:58:48.726Z,4.80
2022-12-11T11:01:19.936Z,4.80
2022-12-11T11:03:54.820Z,4.80
2022-12-11T11:06:22.843Z,4.90
2022-12-11T11:08:53.138Z,4.90
2022-12-11T11:11:27.580Z,5.00
2022-12-11T11:14:27.164Z,5.10
2022-12-11T11:17:00.974Z,5.40
2022-12-11T11:19:33.426Z,5.50
2022-12-11T11:22:12.868Z,5.70
2022-12-11T11:24:44.393Z,5.70
2022-12-11T11:27:30.910Z,5.70
2022-12-11T11:30:01.633Z,5.60
2022-12-11T11:32:36.356Z,5.70
2022-12-11T11:35:12.854Z,5.80
2022-12-11T11:37:44.469Z,5.90
2022-12-11T11:40:20.284Z,5.90
2022-12-11T11:43:12.150Z,5.90
2022-12-11T11:45:57.655Z,5.80
2022-12-11T11:48:30.771Z,5.60
2022-12-11T11:51:08.375Z,5.50
2022-12-11T11:53:40.498Z,5.40
2022-12-11T11:56:31.686Z,5.10
2022-12-11T11:59:12.231Z,4.80
2022-12-11T12:01:42.204Z,4.70
2022-12-11T12:04:10.880Z,4.70
2022-12-11T12:07:02.221Z,4.70
2022-12-11T12:09:51.631Z,4.70
2022-12-11T12:12:51.123Z,4.80
2022-12-11T12:15:47.029Z,4.90
2022-12-11T12:18:40.192Z,4.90
2022-12-11T12:21:24.074Z,4.90
2022-12-11T12:24:06.589Z,4.80
2022-12-11T12:26:36.870Z,4.70
2022-12-11T12:29:31.864Z,4.70
2022-12-11T12:32:12.755Z,4.80
2022-12-11T12:34:39.965Z,4.80
2022-12-11T12:37:42.395Z,4.80
2022-12-11T12:40:55.704Z,4.90
2022-12-11T12:43:57.036Z,4.90
2022-12-11T12:46:28.920Z,4.80
2022-12-11T12:48:59.012Z,4.80
2022-12-11T12:51:27.371Z,4.90
2022-12-11T12:54:01.448Z,4.90
2022-12-11T12:56:31.983Z,5.00
2022-12-11T12:58:59.216Z,5.00
2022-12-11T13:01:28.509Z,4.90
2022-12-11T13:04:02.147Z,4.80
2022-12-11T13:06:44.067Z,4.80
2022-12-11T13:09:24.376Z,4.70
2022-12-11T13:11:57.540Z,4.70
2022-12-11T13:14:28.730Z,4.70
2022-12-11T13:17:25.366Z,4.80
2022-12-11T13:20:16.190Z,4.90
2022-12-11T13:23:00.022Z,4.90
2022-12-11T13:25:30.440Z,4.90
2022-12-11T13:28:19.666Z,4.90
2022-12-11T13:31:01.331Z,4.90
2022-12-11T13:33:30.436Z,5.00
2022-12-11T13:36:22.784Z,5.10
2022-12-11T13:39:17.336Z,5.10
2022-12-11T13:41:48.809Z,5.10
2022-12-11T13:44:25.923Z,5.10
2022-12-11T13:46:55.900Z,5.20
2022-12-11T13:49:29.984Z,5.20
2022-12-11T13:51:59.916Z,5.20
2022-12-11T13:54:29.147Z,5.20
2022-12-11T13:57:18.246Z,5.20
2022-12-11T13:59:57.865Z,5.20
2022-12-11T14:02:29.796Z,5.00
2022-12-11T14:05:03.366Z,4.90
2022-12-11T14:07:36.954Z,4.90
2022-12-11T14:10:09.555Z,4.90
2022-12-11T14:12:37.470Z,4.80
2022-12-11T14:15:05.450Z,4.80
2022-12-11T14:17:34.852Z,4.70
2022-12-11T14:20:08.140Z,4.70
2022-12-11T14:22:35.435Z,4.70
2022-12-11T14:25:19.450Z,4.60
2022-12-11T14:27:51.908Z,4.60
2022-12-11T14:30:28.004Z,4.60
2022-12-11T14:32:58.964Z,4.70
2022-12-11T14:35:41.691Z,4.60
2022-12-11T14:38:22.565Z,4.60
2022-12-11T14:40:54.542Z,4.50
2022-12-11T14:43:29.816Z,4.50
2022-12-11T14:46:06.750Z,4.40
2022-12-11T14:48:44.012Z,4.40
2022-12-11T14:51:14.426Z,4.40
2022-12-11T14:53:46.139Z,4.50
2022-12-11T14:56:21.147Z,4.50
2022-12-11T14:59:00.638Z,4.40
2022-12-11T15:01:33.805Z,4.50
2022-12-11T15:04:16.122Z,4.50
2022-12-11T15:06:48.304Z,4.40
2022-12-11T15:09:18.649Z,4.30
2022-12-11T15:11:48.294Z,4.30
2022-12-11T15:14:17.784Z,4.30
2022-12-11T15:16:46.611Z,4.30
2022-12-11T15:19:21.044Z,4.30
2022-12-11T15:21:48.838Z,4.30
2022-12-11T15:24:48.442Z,4.20
2022-12-11T15:27:35.642Z,4.10
2022-12-11T15:30:29.089Z,4.10
2022-12-11T15:33:11.531Z,4.10
2022-12-11T15:35:40.302Z,4.00
2022-12-11T15:38:30.707Z,4.10
2022-12-11T15:40:58.133Z,4.10
2022-12-11T15:43:26.168Z,4.10
2022-12-11T15:45:53.644Z,4.10
2022-12-11T15:48:20.932Z,4.10
2022-12-11T15:50:48.271Z,4.00
2022-12-11T15:53:15.440Z,4.10
2022-12-11T15:55:42.724Z,4.10
2022-12-11T15:58:19.252Z,4.10
2022-12-11T16:00:46.913Z,4.00
2022-12-11T16:03:16.292Z,4.00
2022-12-11T16:05:44.075Z,3.90
2022-12-11T16:08:16.955Z,4.00
2022-12-11T16:10:45.398Z,4.00
2022-12-11T16:13:13.631Z,4.00
2022-12-11T16:15:43.960Z,3.90
2022-12-11T16:18:15.421Z,3.90
2022-12-11T16:20:44.379Z,3.90
2022-12-11T16:23:13.532Z,3.90
2022-12-11T16:25:42.502Z,3.90
2022-12-11T16:28:11.553Z,3.90
2022-12-11T16:30:39.285Z,3.90
2022-12-11T16:33:12.510Z,4.00
2022-12-11T16:35:41.862Z,3.90
2022-12-11T16:38:10.499Z,4.00
2022-12-11T16:40:38.246Z,3.90
2022-12-11T16:43:05.900Z,3.90
2022-12-11T16:45:33.973Z,3.90
2022-12-11T16:48:05.220Z,5.40
2022-12-11T16:50:32.497Z,3.90
2022-12-11T16:52:59.814Z,3.90
2022-12-11T16:55:27.111Z,3.80
2022-12-11T16:57:55.095Z,3.80
2022-12-11T17:00:22.748Z,3.80
2022-12-11T17:02:50.407Z,3.80
2022-12-11T17:05:17.654Z,3.90
2022-12-11T17:07:44.978Z,3.90
2022-12-11T17:10:12.449Z,4.00
2022-12-11T17:12:39.807Z,3.90
2022-12-11T17:15:07.471Z,4.00
2022-12-11T17:17:34.727Z,3.90
2022-12-11T17:20:02.073Z,4.00
2022-12-11T17:22:29.890Z,4.00
2022-12-11T17:24:57.075Z,4.10
2022-12-11T17:27:24.284Z,4.00
2022-12-11T17:29:51.558Z,4.00
2022-12-11T17:32:18.892Z,4.00
2022-12-11T17:34:48.153Z,4.00
2022-12-11T17:37:15.784Z,4.00
2022-12-11T17:39:43.259Z,3.90
2022-12-11T17:42:10.751Z,3.90
2022-12-11T17:44:38.848Z,3.90
2022-12-11T17:47:10.807Z,3.90
2022-12-11T17:49:40.355Z,3.80
2022-12-11T17:52:07.860Z,3.80
2022-12-11T17:54:35.125Z,3.80
2022-12-11T17:57:02.674Z,3.80
2022-12-11T17:59:30.001Z,3.80
2022-12-11T18:01:57.688Z,3.70
2022-12-11T18:04:25.262Z,3.70
2022-12-11T18:06:52.521Z,3.70
2022-12-11T18:09:19.746Z,3.70
2022-12-11T18:11:46.977Z,3.80
2022-12-11T18:14:17.390Z,3.70
2022-12-11T18:16:44.992Z,3.70
2022-12-11T18:19:12.684Z,3.70
2022-12-11T18:21:43.752Z,3.70
2022-12-11T18:24:11.510Z,3.70
2022-12-11T18:26:38.830Z,3.70
2022-12-11T18:29:06.646Z,3.70
2022-12-11T18:31:38.883Z,3.70
2022-12-11T18:34:10.819Z,3.70
2022-12-11T18:36:38.371Z,3.70
2022-12-11T18:39:05.608Z,3.70
2022-12-11T18:41:32.898Z,5.50
2022-12-11T18:44:05.180Z,3.70
2022-12-11T18:46:35.313Z,3.70
2022-12-11T18:49:02.726Z,3.70
2022-12-11T18:51:30.226Z,3.70
2022-12-11T18:53:57.516Z,3.70
2022-12-11T18:56:24.750Z,3.70
2022-12-11T18:58:52.287Z,3.70
2022-12-11T19:01:25.442Z,3.70
2022-12-11T19:04:03.255Z,3.60
2022-12-11T19:06:35.233Z,3.60
2022-12-11T19:09:04.260Z,3.50
2022-12-11T19:11:32.917Z,3.50
2022-12-11T19:14:00.455Z,3.50
2022-12-11T19:16:32.578Z,3.50
2022-12-11T19:19:01.665Z,3.60
2022-12-11T19:21:30.669Z,3.60
2022-12-11T19:23:59.287Z,3.60
2022-12-11T19:26:27.075Z,3.50
2022-12-11T19:28:56.848Z,3.40
2022-12-11T19:31:24.088Z,3.50
2022-12-11T19:33:51.276Z,3.50
2022-12-11T19:36:22.463Z,3.40
2022-12-11T19:38:50.230Z,5.80
2022-12-11T19:41:24.873Z,3.40
2022-12-11T19:43:52.415Z,3.40
2022-12-11T19:46:20.403Z,3.40
2022-12-11T19:48:52.213Z,3.40
2022-12-11T19:51:26.725Z,3.40
2022-12-11T19:53:54.228Z,3.40
2022-12-11T19:56:21.436Z,3.40
2022-12-11T19:58:49.779Z,3.50
2022-12-11T20:01:30.921Z,3.50
2022-12-11T20:04:00.660Z,3.60
2022-12-11T20:06:29.523Z,3.60
2022-12-11T20:08:57.231Z,3.60
2022-12-11T20:11:25.128Z,3.70
2022-12-11T20:13:55.382Z,3.70
2022-12-11T20:16:39.652Z,3.70
2022-12-11T20:19:10.503Z,3.70
2022-12-11T20:21:37.750Z,3.70
2022-12-11T20:24:05.324Z,3.80
2022-12-11T20:26:35.879Z,3.70
2022-12-11T20:29:07.160Z,3.70
2022-12-11T20:31:35.709Z,3.70
2022-12-11T20:34:03.534Z,3.60
2022-12-11T20:36:30.973Z,3.60
2022-12-11T20:38:58.394Z,3.60
2022-12-11T20:41:26.803Z,3.70
2022-12-11T20:43:54.477Z,3.70
2022-12-11T20:46:27.725Z,3.70
2022-12-11T20:48:58.458Z,3.70
2022-12-11T20:51:26.724Z,3.80
2022-12-11T20:53:59.099Z,3.70
2022-12-11T20:56:31.049Z,3.70
2022-12-11T20:58:59.840Z,3.70
2022-12-11T21:01:29.739Z,3.60
2022-12-11T21:03:57.827Z,3.60
2022-12-11T21:06:31.855Z,3.70
2022-12-11T21:09:00.976Z,3.70
2022-12-11T21:11:28.480Z,3.70
2022-12-11T21:13:55.925Z,3.70
2022-12-11T21:16:23.808Z,3.70
2022-12-11T21:18:51.900Z,3.70
2022-12-11T21:21:20.375Z,3.70
2022-12-11T21:23:47.646Z,3.70
2022-12-11T21:26:15.666Z,3.70
2022-12-11T21:28:42.969Z,3.70
2022-12-11T21:31:14.125Z,3.60
2022-12-11T21:33:41.672Z,3.60
2022-12-11T21:36:11.099Z,3.60
2022-12-11T21:38:39.248Z,3.50
2022-12-11T21:41:08.645Z,3.50
2022-12-11T21:43:35.953Z,3.50
2022-12-11T21:46:03.911Z,3.40
2022-12-11T21:48:31.520Z,3.50
2022-12-11T21:51:12.040Z,3.40
2022-12-11T21:53:39.363Z,3.50
2022-12-11T21:56:15.256Z,4.30
2022-12-11T21:58:42.881Z,3.60
2022-12-11T22:01:21.031Z,3.60
2022-12-11T22:03:49.302Z,3.60
2022-12-11T22:06:16.583Z,3.60
2022-12-11T22:08:43.767Z,3.60
2022-12-11T22:11:10.955Z,3.60
2022-12-11T22:13:38.130Z,3.60
2022-12-11T22:16:05.425Z,3.60
2022-12-11T22:18:32.682Z,3.70
2022-12-11T22:20:59.880Z,3.70
2022-12-11T22:23:27.111Z,3.80
2022-12-11T22:25:54.692Z,3.80
2022-12-11T22:28:21.915Z,3.80
2022-12-11T22:30:49.149Z,3.80
2022-12-11T22:33:16.426Z,5.00
2022-12-11T22:35:43.721Z,3.80
2022-12-11T22:38:10.969Z,3.80
2022-12-11T22:40:41.775Z,3.70
2022-12-11T22:43:08.997Z,3.70
2022-12-11T22:45:40.491Z,3.80
2022-12-11T22:48:08.415Z,3.80
2022-12-11T22:50:37.205Z,3.80
2022-12-11T22:53:05.203Z,3.90
2022-12-11T22:55:33.112Z,4.00
2022-12-11T22:58:00.405Z,4.00
2022-12-11T23:00:27.624Z,4.00
2022-12-11T23:02:55.121Z,4.00
2022-12-11T23:05:22.415Z,3.90
2022-12-11T23:07:49.752Z,3.90
2022-12-11T23:10:17.014Z,3.80
2022-12-11T23:12:44.264Z,3.70
2022-12-11T23:15:13.682Z,3.70
2022-12-11T23:17:41.092Z,3.70
2022-12-11T23:20:08.833Z,3.50
2022-12-11T23:22:36.071Z,3.50
2022-12-11T23:25:04.240Z,3.50
2022-12-11T23:27:31.726Z,3.40
2022-12-11T23:29:58.944Z,3.30
2022-12-11T23:32:27.916Z,3.40
2022-12-11T23:34:55.067Z,3.40
2022-12-11T23:37:22.266Z,3.40
2022-12-11T23:39:49.512Z,3.30
2022-12-11T23:42:16.931Z,3.30
2022-12-11T23:44:44.250Z,3.30
2022-12-11T23:47:11.387Z,3.30
2022-12-11T23:49:38.557Z,3.20
2022-12-11T23:52:05.862Z,3.20
2022-12-11T23:54:33.112Z,3.20
2022-12-11T23:57:00.328Z,3.20
2022-12-11T23:59:27.499Z,3.20
